TimeAEST,TemperatureF,Dew PointF,Humidity,Sea Level PressureIn,VisibilityMPH,Wind Direction,Wind SpeedMPH,Gust SpeedMPH,PrecipitationIn,Events,Conditions,WindDirDegrees,DateUTC
12:00 AM,79,75,84,29.88,7,SSE,5.8,,,,Mostly Cloudy,150,2011-11-25 14:00:00
12:00 AM,78.8,75.2,89,29.89,6.2,SSE,5.8,-,N/A,,Mostly Cloudy,150,2011-11-25 14:00:00
12:30 AM,78.8,75.2,89,29.86,6.2,SSE,6.9,-,N/A,,Mostly Cloudy,160,2011-11-25 14:30:00
1:00 AM,78,75,89,29.87,,SSE,5.8,,,,,160,2011-11-25 15:00:00
1:00 AM,78.8,75.2,89,29.86,6.2,SSE,5.8,-,N/A,,Scattered Clouds,160,2011-11-25 15:00:00
1:30 AM,78.8,75.2,89,29.86,6.2,SE,5.8,-,N/A,,Scattered Clouds,140,2011-11-25 15:30:00
2:00 AM,78.8,75.2,89,29.83,3.7,South,6.9,-,N/A,Rain,Light Rain Showers,170,2011-11-25 16:00:00
2:30 AM,77.0,77.0,100,29.83,2.5,SE,8.1,-,N/A,Rain,Light Rain Showers,140,2011-11-25 16:30:00
2:53 AM,77.0,75.2,94,29.83,6.2,SSE,5.8,-,N/A,,Mostly Cloudy,160,2011-11-25 16:53:00
3:00 AM,78,75,89,29.82,8,South,6.9,,,Rain,Light Rain Showers,170,2011-11-25 17:00:00
3:00 AM,77.0,75.2,94,29.80,6.2,South,6.9,-,N/A,,Mostly Cloudy,170,2011-11-25 17:00:00
3:30 AM,77.0,75.2,94,29.83,5.0,SSE,5.8,-,N/A,,Mostly Cloudy,150,2011-11-25 17:30:00
4:00 AM,78,75,89,29.83,,SSE,5.8,,,,,160,2011-11-25 18:00:00
4:00 AM,77.0,75.2,94,29.83,6.2,SSE,5.8,-,N/A,,Mostly Cloudy,160,2011-11-25 18:00:00
4:30 AM,77.0,75.2,94,29.83,2.5,SSE,6.9,-,N/A,Rain,Light Rain Showers,150,2011-11-25 18:30:00
5:00 AM,77.0,75.2,94,29.83,6.2,SSE,10.4,-,N/A,,Mostly Cloudy,160,2011-11-25 19:00:00
5:30 AM,77.0,75.2,94,29.83,6.2,South,8.1,-,N/A,,Mostly Cloudy,170,2011-11-25 19:30:00
6:00 AM,78,74,83,29.86,9,South,8.1,,,,Mostly Cloudy,180,2011-11-25 20:00:00
6:00 AM,77.0,73.4,89,29.86,6.2,South,8.1,-,N/A,,Mostly Cloudy,170,2011-11-25 20:00:00
6:30 AM,78.8,75.2,89,29.86,6.2,SE,8.1,-,N/A,,Mostly Cloudy,140,2011-11-25 20:30:00
7:00 AM,79,74,82,29.88,,South,6.9,,,,,170,2011-11-25 21:00:00
7:00 AM,78.8,75.2,89,29.86,6.2,South,6.9,-,N/A,,Mostly Cloudy,170,2011-11-25 21:00:00
7:30 AM,80.6,75.2,84,29.86,6.2,SSE,5.8,-,N/A,,Scattered Clouds,160,2011-11-25 21:30:00
8:00 AM,80.6,75.2,84,29.86,6.2,South,8.1,-,N/A,,Scattered Clouds,180,2011-11-25 22:00:00
8:30 AM,82.4,73.4,74,29.89,6.2,South,6.9,-,N/A,Rain,Light Rain Showers,170,2011-11-25 22:30:00
9:00 AM,82,75,73,29.89,7,SSE,5.8,,,,Mostly Cloudy,160,2011-11-25 23:00:00
9:00 AM,82.4,75.2,79,29.89,6.2,SSE,5.8,-,N/A,Rain,Light Rain Showers,160,2011-11-25 23:00:00
9:30 AM,84.2,75.2,74,29.89,6.2,South,8.1,-,N/A,,Mostly Cloudy,170,2011-11-25 23:30:00
10:00 AM,84.2,75.2,74,29.86,6.2,South,6.9,-,N/A,,Mostly Cloudy,170,2011-11-26 00:00:00
10:30 AM,80.6,75.2,84,29.86,6.2,East,8.1,-,N/A,Rain,Rain Showers,90,2011-11-26 00:30:00
11:00 AM,84.2,75.2,74,29.86,6.2,ENE,6.9,-,N/A,,Mostly Cloudy,70,2011-11-26 01:00:00
11:30 AM,86.0,73.4,66,29.86,6.2,NE,12.7,-,N/A,,Scattered Clouds,50,2011-11-26 01:30:00
12:00 PM,86,74,61,29.85,12,ENE,13.8,,,,Partly Cloudy,70,2011-11-26 02:00:00
12:00 PM,86.0,75.2,70,29.83,6.2,ENE,13.8,-,N/A,,Scattered Clouds,70,2011-11-26 02:00:00
12:30 PM,84.2,75.2,74,29.83,6.2,ENE,12.7,-,N/A,Rain,Light Rain Showers,70,2011-11-26 02:30:00
1:00 PM,86,74,59,29.83,,NE,13.8,,,,,50,2011-11-26 03:00:00
1:00 PM,86.0,73.4,66,29.80,6.2,NE,13.8,-,N/A,,Partly Cloudy,50,2011-11-26 03:00:00
1:30 PM,86.0,73.4,66,29.80,6.2,ENE,13.8,-,N/A,,Partly Cloudy,60,2011-11-26 03:30:00
2:00 PM,87.8,73.4,62,29.80,6.2,East,15.0,-,N/A,,Partly Cloudy,90,2011-11-26 04:00:00
2:30 PM,86.0,69.8,58,29.80,6.2,East,15.0,-,N/A,,Partly Cloudy,80,2011-11-26 04:30:00
3:00 PM,86,72,54,29.80,16,East,15.0,,,,Scattered Clouds,90,2011-11-26 05:00:00
3:00 PM,86.0,71.6,62,29.80,6.2,East,15.0,-,N/A,,Partly Cloudy,90,2011-11-26 05:00:00
3:30 PM,84.2,69.8,62,29.80,6.2,ESE,15.0,-,N/A,,Partly Cloudy,120,2011-11-26 05:30:00
4:00 PM,86,72,55,29.80,,East,15.0,,,,,90,2011-11-26 06:00:00
4:00 PM,86.0,71.6,62,29.77,6.2,East,15.0,-,N/A,,Partly Cloudy,90,2011-11-26 06:00:00
4:30 PM,84.2,69.8,62,29.77,6.2,East,15.0,-,N/A,,Partly Cloudy,100,2011-11-26 06:30:00
5:00 PM,84.2,69.8,62,29.80,6.2,East,13.8,-,N/A,,Partly Cloudy,100,2011-11-26 07:00:00
5:30 PM,82.4,69.8,66,29.80,6.2,ESE,12.7,-,N/A,,Partly Cloudy,110,2011-11-26 07:30:00
6:00 PM,82,70,59,29.81,,ESE,8.1,,,,,110,2011-11-26 08:00:00
6:00 PM,82.4,69.8,66,29.80,6.2,ESE,8.1,-,N/A,,Partly Cloudy,110,2011-11-26 08:00:00
6:30 PM,80.6,71.6,74,29.83,6.2,SE,8.1,-,N/A,,Partly Cloudy,130,2011-11-26 08:30:00
7:00 PM,80,71,67,29.84,,SE,9.2,,,,,130,2011-11-26 09:00:00
7:00 PM,80.6,71.6,74,29.83,6.2,SE,9.2,-,N/A,,Partly Cloudy,130,2011-11-26 09:00:00
7:30 PM,78.8,69.8,74,29.83,6.2,SSE,5.8,-,N/A,,Partly Cloudy,160,2011-11-26 09:30:00
8:00 PM,78.8,69.8,74,29.83,6.2,South,6.9,-,N/A,,Partly Cloudy,170,2011-11-26 10:00:00
8:30 PM,78.8,71.6,78,29.83,6.2,South,6.9,-,N/A,,Partly Cloudy,170,2011-11-26 10:30:00
9:00 PM,77,71,78,29.86,16,SSE,5.8,,,,Partly Cloudy,150,2011-11-26 11:00:00
9:00 PM,77.0,71.6,83,29.86,6.2,SSE,5.8,-,N/A,,Scattered Clouds,150,2011-11-26 11:00:00
9:30 PM,77.0,71.6,83,29.86,6.2,South,1.2,-,N/A,,Scattered Clouds,170,2011-11-26 11:30:00
10:00 PM,78,70,71,29.88,,South,5.8,,,,,180,2011-11-26 12:00:00
10:00 PM,78.8,69.8,74,29.86,6.2,South,5.8,-,N/A,,Scattered Clouds,180,2011-11-26 12:00:00
10:30 PM,77.0,71.6,83,29.86,6.2,SSE,4.6,-,N/A,,Scattered Clouds,160,2011-11-26 12:30:00
11:00 PM,78.8,69.8,74,29.86,6.2,South,5.8,-,N/A,,Scattered Clouds,180,2011-11-26 13:00:00
11:30 PM,77.0,71.6,83,29.86,6.2,SSE,4.6,-,N/A,,Mostly Cloudy,160,2011-11-26 13:30:00